Time;durP1;ratioP1;P1;durP2;ratioP2;P2;SDS_P1;SDS_P2;PMS_P1;PMS_P2;Temp;Humidity;BMP_temperature;BMP_pressure;BME280_temperature;BME280_humidity;BME280_pressure;Samples;Min_cycle;Max_cycle;Signal;HPM_P1;HPM_P2
2023/04/20 00:00:24;;;;;;;2.53;1.40;;;11.50;47.30;;;;;;5008391;28;20382;-83
2023/04/20 00:02:50;;;;;;;2.05;1.33;;;11.40;47.30;;;;;;5019740;28;20021;-85
2023/04/20 00:05:16;;;;;;;2.90;1.60;;;11.40;47.30;;;;;;5004079;28;20167;-83
2023/04/20 00:07:41;;;;;;;1.87;1.33;;;11.30;47.30;;;;;;5037536;28;20086;-83
2023/04/20 00:10:08;;;;;;;2.27;1.30;;;11.30;47.40;;;;;;5039540;28;20282;-86
2023/04/20 00:12:33;;;;;;;3.35;1.33;;;11.30;47.40;;;;;;5019477;28;20401;-84
2023/04/20 00:14:59;;;;;;;2.30;1.20;;;11.30;47.30;;;;;;5022258;28;20036;-84
2023/04/20 00:17:25;;;;;;;2.72;1.40;;;11.20;47.40;;;;;;5024235;28;20025;-83
2023/04/20 00:19:51;;;;;;;3.30;1.40;;;11.20;47.70;;;;;;5020563;28;20036;-85
2023/04/20 00:22:16;;;;;;;2.22;1.40;;;11.20;47.30;;;;;;5018167;28;20958;-84
2023/04/20 00:24:42;;;;;;;2.10;1.13;;;11.20;47.50;;;;;;5015092;28;20498;-84
2023/04/20 00:27:07;;;;;;;1.90;1.27;;;11.10;47.50;;;;;;5025858;28;20257;-85
2023/04/20 00:29:33;;;;;;;1.97;1.30;;;11.10;47.70;;;;;;5020746;28;20422;-84
2023/04/20 00:31:59;;;;;;;2.70;1.13;;;11.00;47.70;;;;;;5024641;28;20039;-85
2023/04/20 00:34:24;;;;;;;1.63;1.10;;;11.00;47.80;;;;;;5021580;28;20020;-84
2023/04/20 00:36:50;;;;;;;2.10;1.20;;;10.90;47.80;;;;;;5022350;28;20017;-84
2023/04/20 00:39:16;;;;;;;2.13;1.30;;;10.80;47.80;;;;;;5011961;28;20025;-84
2023/04/20 00:41:42;;;;;;;1.80;1.10;;;10.80;47.80;;;;;;4989677;28;20727;-84
2023/04/20 00:44:10;;;;;;;1.33;1.10;;;10.80;48.00;;;;;;5020459;28;20033;-84
2023/04/20 00:46:36;;;;;;;3.28;1.33;;;10.70;48.10;;;;;;5035331;28;20049;-85
2023/04/20 00:49:02;;;;;;;3.58;1.42;;;10.60;48.70;;;;;;5008712;28;20028;-84
2023/04/20 00:51:28;;;;;;;2.77;1.10;;;10.60;48.20;;;;;;4985825;28;20505;-85
2023/04/20 00:53:55;;;;;;;1.60;1.02;;;10.50;48.30;;;;;;5002864;28;20039;-84
2023/04/20 00:56:21;;;;;;;3.63;1.10;;;10.50;48.50;;;;;;4995637;28;20129;-84
2023/04/20 00:58:46;;;;;;;2.03;1.13;;;10.40;48.40;;;;;;5038484;28;20648;-83
2023/04/20 01:01:16;;;;;;;1.90;1.10;;;10.40;48.50;;;;;;5023192;28;20024;-84
2023/04/20 01:03:43;;;;;;;1.98;1.30;;;10.30;48.70;;;;;;4997728;28;20077;-84
2023/04/20 01:06:09;;;;;;;2.33;1.20;;;10.20;48.80;;;;;;5005852;28;20124;-84
2023/04/20 01:08:43;;;;;;;1.67;1.10;;;10.20;48.90;;;;;;5035310;28;20116;-82
2023/04/20 01:11:09;;;;;;;1.67;1.17;;;10.10;49.00;;;;;;5015761;28;20029;-84
2023/04/20 01:13:37;;;;;;;2.15;1.20;;;10.00;49.00;;;;;;5037346;28;20036;-84
2023/04/20 01:16:03;;;;;;;1.93;1.20;;;10.00;49.10;;;;;;5022995;28;20150;-84
2023/04/20 01:18:39;;;;;;;4.10;1.30;;;9.90;49.10;;;;;;5032004;28;20120;-84
2023/04/20 01:21:05;;;;;;;1.77;1.30;;;9.90;49.40;;;;;;5009288;28;20028;-83
2023/04/20 01:23:34;;;;;;;3.80;1.20;;;9.80;49.30;;;;;;5039888;28;20438;-84
2023/04/20 01:25:59;;;;;;;2.30;1.05;;;9.80;49.80;;;;;;5015050;28;20063;-82
2023/04/20 01:28:25;;;;;;;1.90;1.10;;;9.70;49.60;;;;;;5018375;28;20056;-85
2023/04/20 01:30:51;;;;;;;2.10;1.20;;;9.70;49.60;;;;;;5019906;28;20236;-84
2023/04/20 01:33:16;;;;;;;1.52;1.10;;;9.60;49.70;;;;;;5027309;28;20044;-84
2023/04/20 01:35:42;;;;;;;2.03;1.20;;;9.60;49.80;;;;;;5014364;28;20218;-84
2023/04/20 01:38:08;;;;;;;1.42;1.00;;;9.50;49.80;;;;;;5006932;28;20112;-84
2023/04/20 01:40:34;;;;;;;2.67;1.30;;;9.50;49.80;;;;;;5034731;28;20037;-84
2023/04/20 01:42:59;;;;;;;2.40;1.25;;;9.40;50.00;;;;;;5035118;28;20433;-83
2023/04/20 01:45:25;;;;;;;1.70;1.00;;;9.40;49.90;;;;;;5033888;28;20051;-84
2023/04/20 01:47:51;;;;;;;1.45;1.10;;;9.30;50.00;;;;;;5002039;28;20588;-84
2023/04/20 01:50:16;;;;;;;1.47;1.10;;;9.30;50.00;;;;;;5035878;28;20051;-84
2023/04/20 01:52:42;;;;;;;1.73;1.00;;;9.30;50.20;;;;;;5019134;28;20029;-83
2023/04/20 01:55:08;;;;;;;2.80;1.30;;;9.30;50.00;;;;;;5021954;28;20024;-84
2023/04/20 01:57:35;;;;;;;1.98;1.20;;;9.20;50.10;;;;;;5033279;28;20323;-83
2023/04/20 02:00:00;;;;;;;1.98;1.15;;;9.20;50.30;;;;;;5038228;28;20056;-84
2023/04/20 02:02:26;;;;;;;1.40;1.00;;;9.20;50.30;;;;;;5015889;28;20083;-84
2023/04/20 02:04:52;;;;;;;2.88;1.40;;;9.10;50.10;;;;;;5036579;28;20025;-83
2023/04/20 02:07:18;;;;;;;2.25;1.35;;;9.20;50.40;;;;;;5036933;28;20020;-84
2023/04/20 02:09:44;;;;;;;2.27;1.40;;;9.10;50.30;;;;;;5018811;28;20064;-82
2023/04/20 02:12:09;;;;;;;1.70;1.23;;;9.10;50.50;;;;;;5024369;28;20060;-83
2023/04/20 02:14:35;;;;;;;1.80;1.10;;;9.10;50.40;;;;;;5016092;28;20095;-83
2023/04/20 02:17:01;;;;;;;1.53;1.10;;;9.10;50.60;;;;;;5020692;28;20318;-83
2023/04/20 02:19:26;;;;;;;1.73;1.10;;;9.00;50.40;;;;;;5036729;28;20282;-84
2023/04/20 02:21:52;;;;;;;2.00;1.20;;;9.00;50.50;;;;;;5032828;28;20025;-83
2023/04/20 02:24:18;;;;;;;2.10;1.20;;;9.00;50.60;;;;;;5003022;28;20554;-83
2023/04/20 02:26:43;;;;;;;2.53;1.30;;;9.00;50.80;;;;;;5033285;28;20040;-83
2023/04/20 02:29:09;;;;;;;2.10;1.15;;;8.90;50.80;;;;;;5033285;28;20068;-85
2023/04/20 02:31:35;;;;;;;3.73;1.20;;;9.00;50.80;;;;;;5035003;28;20037;-82
2023/04/20 02:34:01;;;;;;;2.80;1.20;;;8.90;50.80;;;;;;5038329;28;20040;-83
2023/04/20 02:36:27;;;;;;;2.85;0.98;;;8.90;50.80;;;;;;5015623;28;20033;-83
2023/04/20 02:38:53;;;;;;;1.90;1.23;;;8.80;50.90;;;;;;5042322;28;20024;-85
2023/04/20 02:41:18;;;;;;;2.67;1.25;;;8.80;51.00;;;;;;5015165;28;20132;-84
2023/04/20 02:43:44;;;;;;;2.20;1.20;;;8.80;51.10;;;;;;5030690;28;20616;-83
2023/04/20 02:46:10;;;;;;;1.63;1.10;;;8.80;50.90;;;;;;5021196;28;20047;-83
2023/04/20 02:48:35;;;;;;;2.28;1.20;;;8.70;50.90;;;;;;5012181;28;20344;-83
2023/04/20 02:51:01;;;;;;;2.77;1.17;;;8.70;51.10;;;;;;5036290;28;20033;-84
2023/04/20 02:53:27;;;;;;;1.80;1.10;;;8.70;51.30;;;;;;5036913;28;20279;-84
2023/04/20 02:55:53;;;;;;;1.70;1.10;;;8.70;51.10;;;;;;5000388;28;20430;-84
2023/04/20 02:58:18;;;;;;;2.43;1.20;;;8.70;51.30;;;;;;5003833;28;20032;-84
2023/04/20 03:00:44;;;;;;;1.90;1.20;;;8.70;51.20;;;;;;5025508;28;20112;-85
2023/04/20 03:03:10;;;;;;;2.00;1.10;;;8.70;51.30;;;;;;5037685;28;20025;-83
2023/04/20 03:05:36;;;;;;;1.85;1.08;;;8.60;51.20;;;;;;5015189;28;20050;-84
2023/04/20 03:08:04;;;;;;;3.38;1.10;;;8.60;51.30;;;;;;5023335;28;20017;-83
2023/04/20 03:10:30;;;;;;;2.00;1.20;;;8.60;51.30;;;;;;5003244;28;20025;-84
2023/04/20 03:12:55;;;;;;;1.42;0.98;;;8.60;51.40;;;;;;5020077;28;20020;-84
2023/04/20 03:15:22;;;;;;;1.50;1.00;;;8.60;51.40;;;;;;5034068;28;20033;-85
2023/04/20 03:17:47;;;;;;;1.75;1.00;;;8.60;51.30;;;;;;4999951;28;20561;-83
2023/04/20 03:20:13;;;;;;;2.07;1.00;;;8.50;51.30;;;;;;5023247;28;20025;-85
2023/04/20 03:22:39;;;;;;;2.10;1.03;;;8.50;51.30;;;;;;4996397;28;20957;-84
2023/04/20 03:25:06;;;;;;;1.95;0.90;;;8.50;51.50;;;;;;5017182;28;20052;-84
2023/04/20 03:27:32;;;;;;;2.47;1.07;;;8.50;51.50;;;;;;5000822;28;20540;-84
2023/04/20 03:29:59;;;;;;;1.42;0.98;;;8.50;51.60;;;;;;5023083;28;20078;-83
2023/04/20 03:32:25;;;;;;;1.90;1.10;;;8.40;51.50;;;;;;5014642;28;20155;-84
2023/04/20 03:34:50;;;;;;;1.80;1.08;;;8.40;51.60;;;;;;5005935;28;20132;-84
2023/04/20 03:37:16;;;;;;;1.40;0.90;;;8.40;51.60;;;;;;5039397;28;20032;-84
2023/04/20 03:39:42;;;;;;;1.85;0.90;;;8.30;51.60;;;;;;5035678;28;20273;-84
2023/04/20 03:42:08;;;;;;;1.67;1.00;;;8.30;51.70;;;;;;5006392;28;20029;-84
2023/04/20 03:44:33;;;;;;;2.27;1.10;;;8.30;51.70;;;;;;5019613;28;20314;-84
2023/04/20 03:46:59;;;;;;;1.83;1.00;;;8.30;51.60;;;;;;5021461;28;20108;-84
2023/04/20 03:49:25;;;;;;;1.75;1.00;;;8.30;51.80;;;;;;5005559;28;20099;-85
2023/04/20 03:51:51;;;;;;;1.67;1.00;;;8.30;51.90;;;;;;5017412;28;20037;-84
2023/04/20 03:54:16;;;;;;;1.90;1.10;;;8.20;51.90;;;;;;5042730;28;20107;-84
2023/04/20 03:56:44;;;;;;;2.33;1.10;;;8.20;52.00;;;;;;5002427;28;20619;-82
2023/04/20 03:59:10;;;;;;;2.80;1.20;;;8.20;52.00;;;;;;5039881;28;20596;-83
2023/04/20 04:01:37;;;;;;;2.08;1.00;;;8.20;52.10;;;;;;4998714;28;20024;-83
2023/04/20 04:04:04;;;;;;;2.10;1.00;;;8.20;52.10;;;;;;5022729;28;20552;-84
2023/04/20 04:06:30;;;;;;;1.70;0.90;;;8.20;52.20;;;;;;5032303;28;20025;-84
2023/04/20 04:08:56;;;;;;;2.55;1.05;;;8.10;52.40;;;;;;5025492;28;20661;-84
2023/04/20 04:11:24;;;;;;;2.00;0.90;;;8.10;52.50;;;;;;5040008;28;20063;-84
2023/04/20 04:13:50;;;;;;;1.80;1.20;;;8.20;52.50;;;;;;5022022;28;20574;-83
2023/04/20 04:16:16;;;;;;;2.88;1.10;;;8.20;52.70;;;;;;5040286;28;20026;-85
2023/04/20 04:18:46;;;;;;;3.15;1.10;;;8.20;52.80;;;;;;5016768;28;20116;-84
2023/04/20 04:21:12;;;;;;;1.63;1.10;;;8.20;53.00;;;;;;5012059;28;20687;-84
2023/04/20 04:23:38;;;;;;;1.70;0.90;;;8.20;53.00;;;;;;5018854;28;20017;-83
2023/04/20 04:26:04;;;;;;;4.07;1.00;;;8.20;53.10;;;;;;5039569;28;20028;-84
2023/04/20 04:28:31;;;;;;;1.80;0.90;;;8.20;53.80;;;;;;5015678;28;20470;-84
2023/04/20 04:31:00;;;;;;;2.08;1.00;;;8.30;53.10;;;;;;5019925;28;20399;-84
2023/04/20 04:33:26;;;;;;;3.42;1.30;;;8.20;53.20;;;;;;5017844;28;20024;-85
2023/04/20 04:35:52;;;;;;;1.90;1.20;;;8.30;53.50;;;;;;5023195;28;20017;-84
2023/04/20 04:38:18;;;;;;;1.55;1.00;;;8.30;53.50;;;;;;5020630;28;20663;-85
2023/04/20 04:40:46;;;;;;;1.90;1.10;;;8.40;53.70;;;;;;5018766;28;20113;-84
2023/04/20 04:43:12;;;;;;;2.40;1.25;;;8.40;53.80;;;;;;4990207;28;20759;-84
2023/04/20 04:45:39;;;;;;;1.53;0.90;;;8.40;54.00;;;;;;5008736;28;20178;-84
2023/04/20 04:48:07;;;;;;;2.95;1.30;;;8.50;54.10;;;;;;5021301;28;20013;-83
2023/04/20 04:50:33;;;;;;;3.50;1.10;;;8.60;54.20;;;;;;5011864;28;20714;-83
2023/04/20 04:52:58;;;;;;;1.80;1.13;;;8.60;54.30;;;;;;5004029;28;20115;-84
2023/04/20 04:55:24;;;;;;;1.75;1.10;;;8.60;54.40;;;;;;5039694;28;20114;-85
2023/04/20 04:57:50;;;;;;;1.80;1.13;;;8.70;54.50;;;;;;5035539;28;20195;-85
2023/04/20 05:00:16;;;;;;;3.27;1.03;;;8.70;55.20;;;;;;5003482;28;20661;-84
2023/04/20 05:02:42;;;;;;;1.50;1.10;;;8.80;54.80;;;;;;5001036;28;20032;-85
2023/04/20 05:05:08;;;;;;;2.33;1.10;;;8.80;54.70;;;;;;5009119;28;20033;-83
2023/04/20 05:07:34;;;;;;;1.92;0.98;;;8.90;54.80;;;;;;5022275;28;20025;-83
2023/04/20 05:09:59;;;;;;;1.80;1.20;;;8.90;54.80;;;;;;5018151;28;20167;-83
2023/04/20 05:12:25;;;;;;;2.30;1.00;;;9.00;54.80;;;;;;5039338;28;20021;-84
2023/04/20 05:14:51;;;;;;;3.03;1.00;;;9.00;54.80;;;;;;5000283;28;20049;-83
2023/04/20 05:17:17;;;;;;;1.83;1.00;;;9.00;55.00;;;;;;5019085;28;20372;-84
2023/04/20 05:19:43;;;;;;;1.85;1.08;;;9.10;55.00;;;;;;5014547;28;20612;-85
2023/04/20 05:22:09;;;;;;;1.65;1.00;;;9.10;55.20;;;;;;5025178;28;20793;-85
2023/04/20 05:24:34;;;;;;;2.03;1.20;;;9.20;55.20;;;;;;5038816;28;20090;-84
2023/04/20 05:27:00;;;;;;;1.27;1.00;;;9.20;55.50;;;;;;5031215;28;20706;-84
2023/04/20 05:29:26;;;;;;;1.03;0.70;;;9.30;55.50;;;;;;5030379;28;20424;-84
2023/04/20 05:31:52;;;;;;;1.27;1.10;;;9.30;55.50;;;;;;4981170;28;20498;-84
2023/04/20 05:34:17;;;;;;;1.53;1.10;;;9.40;55.50;;;;;;5017430;28;20285;-85
2023/04/20 05:36:43;;;;;;;1.40;1.10;;;9.40;55.70;;;;;;5019309;28;20064;-82
2023/04/20 05:39:09;;;;;;;1.92;1.20;;;9.40;55.80;;;;;;5016708;28;20395;-83
2023/04/20 05:41:35;;;;;;;2.03;1.33;;;9.50;55.80;;;;;;5018664;28;20032;-82
2023/04/20 05:44:00;;;;;;;2.30;1.40;;;9.60;56.00;;;;;;5029583;28;20719;-83
2023/04/20 05:46:28;;;;;;;1.98;1.20;;;9.60;56.20;;;;;;4976322;28;20491;-82
2023/04/20 05:48:54;;;;;;;1.38;0.82;;;9.70;56.10;;;;;;5011179;28;20021;-83
2023/04/20 05:51:20;;;;;;;2.23;1.30;;;9.70;56.20;;;;;;5029728;28;20029;-83
2023/04/20 05:53:46;;;;;;;2.33;1.40;;;9.70;56.20;;;;;;5020863;28;20058;-83
2023/04/20 05:56:13;;;;;;;2.65;1.40;;;9.80;56.60;;;;;;5013853;28;20116;-83
2023/04/20 05:58:39;;;;;;;2.22;1.40;;;9.80;56.60;;;;;;5015510;28;20020;-84
2023/04/20 06:01:06;;;;;;;2.00;1.20;;;9.90;56.50;;;;;;4990085;28;20276;-81
2023/04/20 06:03:32;;;;;;;2.35;1.40;;;9.90;56.50;;;;;;5037169;28;20036;-83
2023/04/20 06:05:58;;;;;;;1.90;1.20;;;9.90;56.70;;;;;;4991574;28;20028;-84
2023/04/20 06:08:23;;;;;;;2.30;1.38;;;10.00;56.60;;;;;;4996461;28;20049;-83
2023/04/20 06:10:54;;;;;;;2.03;1.30;;;10.00;56.80;;;;;;4994389;28;20021;-83
2023/04/20 06:13:20;;;;;;;2.15;1.30;;;10.00;57.10;;;;;;5030982;28;20021;-84
2023/04/20 06:15:46;;;;;;;3.38;1.40;;;10.10;57.00;;;;;;5022021;28;20032;-83
2023/04/20 06:18:11;;;;;;;2.77;1.60;;;10.10;56.80;;;;;;4990028;28;20029;-83
2023/04/20 06:20:39;;;;;;;3.75;1.67;;;10.10;57.30;;;;;;5036278;28;20024;-83
2023/04/20 06:23:05;;;;;;;4.17;1.40;;;10.10;57.20;;;;;;5030989;28;20265;-83
2023/04/20 06:25:30;;;;;;;2.85;1.65;;;10.10;57.30;;;;;;5009518;28;20037;-84
2023/04/20 06:27:56;;;;;;;2.57;1.33;;;10.20;57.70;;;;;;5028698;28;20193;-82
2023/04/20 06:30:22;;;;;;;3.33;1.52;;;10.20;57.60;;;;;;5020740;28;20600;-84
2023/04/20 06:32:47;;;;;;;2.73;1.67;;;10.20;58.00;;;;;;5005206;28;20039;-82
2023/04/20 06:35:13;;;;;;;3.15;1.80;;;10.30;58.20;;;;;;5006397;28;20036;-83
2023/04/20 06:37:39;;;;;;;3.33;1.67;;;10.20;58.00;;;;;;5020113;28;20017;-83
2023/04/20 06:40:09;;;;;;;3.40;1.80;;;10.30;58.60;;;;;;5016158;28;21991;-81
2023/04/20 06:42:35;;;;;;;2.83;1.60;;;10.30;58.50;;;;;;5020176;28;20161;-84
2023/04/20 06:45:01;;;;;;;4.55;2.00;;;10.30;59.30;;;;;;5035067;28;20033;-86
2023/04/20 06:47:30;;;;;;;3.37;1.90;;;10.20;59.00;;;;;;5011018;28;20028;-83
2023/04/20 06:50:01;;;;;;;5.03;2.53;;;10.20;58.90;;;;;;5010250;28;20028;-83
2023/04/20 06:52:27;;;;;;;3.58;2.08;;;10.20;59.80;;;;;;5033130;28;20587;-84
2023/04/20 06:54:53;;;;;;;2.95;1.77;;;10.20;59.30;;;;;;5021342;28;20025;-83
2023/04/20 06:57:19;;;;;;;3.53;1.90;;;10.10;59.20;;;;;;5016559;28;20036;-84
2023/04/20 06:59:44;;;;;;;3.03;1.70;;;10.10;59.30;;;;;;5013491;28;20179;-83
2023/04/20 07:02:10;;;;;;;2.50;1.60;;;10.10;59.50;;;;;;4995198;28;20321;-83
2023/04/20 07:04:36;;;;;;;2.80;1.40;;;10.10;59.50;;;;;;5002447;28;20272;-84
2023/04/20 07:07:02;;;;;;;2.13;1.50;;;10.10;59.70;;;;;;5021266;28;20602;-83
2023/04/20 07:09:27;;;;;;;2.50;1.60;;;10.10;59.70;;;;;;5037806;28;20021;-84
2023/04/20 07:11:55;;;;;;;2.45;1.42;;;10.10;60.00;;;;;;5024997;28;20100;-83
2023/04/20 07:14:20;;;;;;;2.90;1.50;;;10.20;60.20;;;;;;5029026;28;20075;-83
2023/04/20 07:16:46;;;;;;;2.85;1.50;;;10.20;59.90;;;;;;5032439;28;20461;-82
2023/04/20 07:19:11;;;;;;;2.03;1.40;;;10.20;59.90;;;;;;5022368;28;20021;-83
2023/04/20 07:21:37;;;;;;;3.03;1.52;;;10.30;59.90;;;;;;5015880;28;20024;-82
2023/04/20 07:24:03;;;;;;;1.70;1.20;;;10.30;60.00;;;;;;5018485;28;20021;-83
2023/04/20 07:26:29;;;;;;;2.33;1.60;;;10.30;60.70;;;;;;5030922;28;20029;-83
2023/04/20 07:28:54;;;;;;;3.37;1.50;;;10.30;59.80;;;;;;4949253;28;20527;-83
2023/04/20 07:31:20;;;;;;;4.13;1.50;;;10.30;59.80;;;;;;5026848;28;20044;-83
2023/04/20 07:33:46;;;;;;;2.70;1.50;;;10.30;59.70;;;;;;4992923;28;20244;-84
2023/04/20 07:36:11;;;;;;;2.63;1.30;;;10.30;60.20;;;;;;5024542;28;20048;-84
2023/04/20 07:38:37;;;;;;;2.67;1.43;;;10.40;60.20;;;;;;5009141;28;20017;-84
2023/04/20 07:41:03;;;;;;;1.70;1.23;;;10.40;60.20;;;;;;5032014;28;20068;-83
2023/04/20 07:43:28;;;;;;;1.73;1.20;;;10.40;60.10;;;;;;5031092;28;20060;-84
2023/04/20 07:45:54;;;;;;;3.22;1.60;;;10.50;60.40;;;;;;5010139;28;20021;-83
2023/04/20 07:48:20;;;;;;;2.60;1.70;;;10.50;60.30;;;;;;5008597;28;20030;-84
2023/04/20 07:50:45;;;;;;;2.37;1.33;;;10.50;60.30;;;;;;4968653;28;20258;-84
2023/04/20 07:53:11;;;;;;;2.72;1.50;;;10.60;60.20;;;;;;5014839;28;20505;-84
2023/04/20 07:55:37;;;;;;;2.63;1.40;;;10.60;60.10;;;;;;4995303;28;20132;-84
2023/04/20 07:58:03;;;;;;;3.07;1.40;;;10.60;60.20;;;;;;5034972;28;20028;-83
2023/04/20 08:00:29;;;;;;;2.30;1.42;;;10.70;60.50;;;;;;4998843;28;20051;-83
2023/04/20 08:02:54;;;;;;;3.53;1.50;;;10.70;60.60;;;;;;5014670;28;20025;-84
2023/04/20 08:05:21;;;;;;;2.30;1.50;;;10.70;60.50;;;;;;5008968;28;20127;-84
2023/04/20 08:07:46;;;;;;;1.90;1.30;;;10.80;60.70;;;;;;5000553;28;20642;-84
2023/04/20 08:10:12;;;;;;;2.30;1.30;;;10.90;61.00;;;;;;5033287;28;20277;-83
2023/04/20 08:12:39;;;;;;;2.00;1.33;;;10.90;61.20;;;;;;5010241;28;20036;-84
2023/04/20 08:15:05;;;;;;;2.13;1.40;;;11.10;61.30;;;;;;5015257;28;20801;-83
2023/04/20 08:17:32;;;;;;;1.93;1.17;;;11.20;61.40;;;;;;5034484;28;20521;-83
2023/04/20 08:19:58;;;;;;;3.47;1.70;;;11.30;61.60;;;;;;5036300;28;20043;-82
2023/04/20 08:22:28;;;;;;;2.35;1.50;;;11.50;61.90;;;;;;4994443;28;20025;-84
2023/04/20 08:24:58;;;;;;;3.33;1.70;;;11.60;62.20;;;;;;5022262;28;20655;-84
2023/04/20 08:27:24;;;;;;;3.73;1.80;;;11.80;62.00;;;;;;5019205;28;20029;-85
2023/04/20 08:29:50;;;;;;;4.25;2.00;;;12.00;61.70;;;;;;5008059;28;20057;-82
2023/04/20 08:32:17;;;;;;;3.30;1.67;;;12.10;61.40;;;;;;5036779;28;20377;-84
2023/04/20 08:34:43;;;;;;;2.63;1.70;;;12.20;61.10;;;;;;5017902;28;20403;-83
2023/04/20 08:37:09;;;;;;;2.97;1.58;;;12.20;60.80;;;;;;4998898;28;20108;-81
2023/04/20 08:39:35;;;;;;;2.88;2.00;;;12.30;60.40;;;;;;5005851;28;20246;-82
2023/04/20 08:42:02;;;;;;;4.07;2.13;;;12.30;60.40;;;;;;5040044;28;20402;-82
2023/04/20 08:44:27;;;;;;;3.33;1.90;;;12.20;60.30;;;;;;5022081;28;20025;-83
2023/04/20 08:46:53;;;;;;;3.35;1.90;;;12.20;60.30;;;;;;5021172;28;20524;-84
2023/04/20 08:49:20;;;;;;;4.37;2.50;;;12.20;60.40;;;;;;5024872;28;20144;-84
2023/04/20 08:51:47;;;;;;;4.03;2.33;;;12.20;60.40;;;;;;5020094;28;20017;-85
2023/04/20 08:54:13;;;;;;;5.85;2.50;;;12.20;60.40;;;;;;5016467;28;20174;-85
2023/04/20 08:56:41;;;;;;;4.38;2.40;;;12.20;60.50;;;;;;5037241;28;20099;-84
2023/04/20 08:59:12;;;;;;;3.47;2.30;;;12.30;61.00;;;;;;4999614;28;20109;-84
2023/04/20 09:01:40;;;;;;;3.80;2.30;;;12.30;60.90;;;;;;5012803;28;20025;-87
2023/04/20 09:04:21;;;;;;;4.88;2.40;;;12.30;60.60;;;;;;5042208;28;20017;-83
2023/04/20 09:06:49;;;;;;;4.07;2.00;;;12.30;61.20;;;;;;5014984;28;20666;-87
2023/04/20 09:09:16;;;;;;;3.88;2.10;;;12.30;60.30;;;;;;4995335;28;20046;-82
2023/04/20 09:11:41;;;;;;;3.75;2.20;;;12.30;60.30;;;;;;5015381;28;20139;-84
2023/04/20 09:14:11;;;;;;;3.30;2.00;;;12.30;60.40;;;;;;5018722;28;20044;-83
2023/04/20 09:16:50;;;;;;;3.65;2.08;;;12.30;60.40;;;;;;5014896;28;20237;-81
2023/04/20 09:19:21;;;;;;;4.35;2.00;;;12.30;60.50;;;;;;5028323;28;20068;-83
2023/04/20 09:21:49;;;;;;;3.47;1.90;;;12.30;60.70;;;;;;5001707;28;20159;-82
2023/04/20 09:24:15;;;;;;;3.63;2.15;;;12.30;60.80;;;;;;5016192;28;20102;-82
2023/04/20 09:26:41;;;;;;;4.73;2.10;;;12.30;60.90;;;;;;5035614;28;20506;-83
2023/04/20 09:29:20;;;;;;;2.63;1.80;;;12.40;61.40;;;;;;5034652;28;20038;-83
2023/04/20 09:31:49;;;;;;;3.28;1.77;;;12.40;61.80;;;;;;5016652;28;20127;-84
2023/04/20 09:34:15;;;;;;;3.20;1.80;;;12.50;61.30;;;;;;5023184;28;20021;-83
2023/04/20 09:36:44;;;;;;;2.53;1.77;;;12.60;61.30;;;;;;5031050;28;20029;-83
2023/04/20 09:39:18;;;;;;;3.00;2.00;;;12.70;61.50;;;;;;5010040;28;20032;-81
2023/04/20 09:41:45;;;;;;;3.13;2.00;;;12.80;61.30;;;;;;5016584;28;20305;-82
2023/04/20 09:44:11;;;;;;;3.40;2.10;;;12.90;61.10;;;;;;5015417;28;20385;-82
2023/04/20 09:46:39;;;;;;;2.80;1.83;;;12.90;60.80;;;;;;5011185;28;20027;-83
2023/04/20 09:49:07;;;;;;;5.20;2.00;;;13.00;60.90;;;;;;5032629;28;20036;-83
2023/04/20 09:51:38;;;;;;;4.07;1.95;;;13.10;60.90;;;;;;5022210;28;20108;-84
2023/04/20 09:54:05;;;;;;;2.97;2.00;;;13.20;61.20;;;;;;5012003;28;20262;-82
2023/04/20 09:56:33;;;;;;;4.47;2.00;;;13.30;61.40;;;;;;4993938;28;20028;-83
2023/04/20 09:58:59;;;;;;;2.60;1.83;;;13.40;61.30;;;;;;5017598;28;20018;-82
2023/04/20 10:01:28;;;;;;;2.63;1.77;;;13.50;61.10;;;;;;5009405;28;20035;-85
2023/04/20 10:03:54;;;;;;;3.03;1.60;;;13.60;60.90;;;;;;5031503;28;20021;-81
2023/04/20 10:06:28;;;;;;;3.17;1.90;;;13.70;60.80;;;;;;5032507;28;20025;-84
2023/04/20 10:08:54;;;;;;;3.13;2.00;;;13.80;60.40;;;;;;5009245;28;20024;-83
2023/04/20 10:11:24;;;;;;;2.63;1.75;;;13.90;60.30;;;;;;4992482;28;20040;-84
2023/04/20 10:13:50;;;;;;;3.53;1.80;;;13.80;60.00;;;;;;5014831;28;20235;-84
2023/04/20 10:16:17;;;;;;;2.28;1.50;;;13.90;59.90;;;;;;5008790;28;20054;-84
2023/04/20 10:18:54;;;;;;;2.38;1.50;;;13.80;59.50;;;;;;5032735;28;20278;-84
2023/04/20 10:21:20;;;;;;;2.20;1.38;;;13.90;59.40;;;;;;5005876;28;20025;-84
2023/04/20 10:23:50;;;;;;;2.17;1.55;;;13.80;59.30;;;;;;5006469;28;20725;-83
2023/04/20 10:26:16;;;;;;;2.13;1.63;;;13.80;59.30;;;;;;4990494;28;20483;-84
2023/04/20 10:28:43;;;;;;;2.05;1.45;;;13.70;59.20;;;;;;5012339;28;20227;-84
2023/04/20 10:31:12;;;;;;;3.40;1.65;;;13.70;59.20;;;;;;5017648;28;20513;-83
2023/04/20 10:33:58;;;;;;;2.50;1.50;;;13.70;59.30;;;;;;5034108;28;20622;-81
2023/04/20 10:36:30;;;;;;;2.55;1.50;;;13.60;59.30;;;;;;5033006;28;20530;-84
2023/04/20 10:39:00;;;;;;;2.63;1.73;;;13.60;59.00;;;;;;5035265;28;20029;-83
2023/04/20 10:41:26;;;;;;;4.03;1.80;;;13.50;58.80;;;;;;4995307;28;20055;-84
2023/04/20 10:43:51;;;;;;;2.70;1.60;;;13.40;58.70;;;;;;5032086;28;20474;-85
2023/04/20 10:46:22;;;;;;;2.50;1.58;;;13.30;58.70;;;;;;5019275;28;20941;-83
2023/04/20 10:48:48;;;;;;;2.63;1.40;;;13.20;58.80;;;;;;5024808;28;20017;-83
2023/04/20 10:51:15;;;;;;;2.30;1.65;;;13.10;59.00;;;;;;5012463;28;20079;-86
2023/04/20 10:53:41;;;;;;;1.90;1.43;;;13.10;59.10;;;;;;5000118;28;20033;-84
2023/04/20 10:56:07;;;;;;;3.03;1.85;;;13.00;59.10;;;;;;5005395;28;20136;-80
2023/04/20 10:58:33;;;;;;;3.08;1.85;;;12.90;59.10;;;;;;4995671;28;20032;-83
2023/04/20 11:01:00;;;;;;;2.17;1.53;;;12.90;59.10;;;;;;5014122;28;20354;-84
2023/04/20 11:03:30;;;;;;;2.60;1.60;;;12.80;59.20;;;;;;5035922;28;20209;-83
2023/04/20 11:06:00;;;;;;;2.85;1.70;;;12.80;59.50;;;;;;5016425;28;20021;-86
2023/04/20 11:08:39;;;;;;;2.20;1.57;;;12.80;59.60;;;;;;5016568;28;20382;-81
2023/04/20 11:11:16;;;;;;;2.00;1.35;;;12.70;60.00;;;;;;5017311;28;20037;-83
2023/04/20 11:13:42;;;;;;;3.10;1.95;;;12.70;59.80;;;;;;4994149;28;20041;-81
2023/04/20 11:16:15;;;;;;;2.20;1.42;;;12.70;59.90;;;;;;5033580;28;20248;-83
2023/04/20 11:19:08;;;;;;;2.40;1.60;;;12.80;60.40;;;;;;5007554;28;20039;-83
2023/04/20 11:21:37;;;;;;;2.40;1.60;;;12.80;60.70;;;;;;5018374;28;20060;-82
2023/04/20 11:24:04;;;;;;;2.53;1.70;;;12.90;60.70;;;;;;5018463;28;20031;-83
2023/04/20 11:26:37;;;;;;;1.98;1.38;;;13.10;60.80;;;;;;5013871;28;20739;-82
2023/04/20 11:29:03;;;;;;;1.80;1.40;;;13.20;60.90;;;;;;4988364;28;20024;-84
2023/04/20 11:31:29;;;;;;;1.95;1.48;;;13.30;60.80;;;;;;5031857;28;20040;-83
2023/04/20 11:33:56;;;;;;;2.37;1.80;;;13.40;61.00;;;;;;5038332;28;20025;-84
2023/04/20 11:36:23;;;;;;;2.10;1.50;;;13.60;61.10;;;;;;5002667;28;20025;-82
2023/04/20 11:38:49;;;;;;;2.30;1.70;;;13.70;61.40;;;;;;5019860;28;20033;-84
2023/04/20 11:41:16;;;;;;;2.70;1.73;;;13.90;61.60;;;;;;5012128;28;20247;-83
2023/04/20 11:43:42;;;;;;;2.25;1.70;;;14.10;61.50;;;;;;5028141;28;20514;-83
2023/04/20 11:46:19;;;;;;;2.43;1.67;;;14.30;61.30;;;;;;5006559;28;20486;-84
2023/04/20 11:48:48;;;;;;;2.55;1.60;;;14.50;61.20;;;;;;5043094;28;20021;-82
2023/04/20 11:51:14;;;;;;;2.53;1.70;;;14.70;61.00;;;;;;5020980;28;20616;-83
2023/04/20 11:53:40;;;;;;;2.85;1.73;;;14.80;60.80;;;;;;5003505;28;20554;-83
2023/04/20 11:56:07;;;;;;;2.90;1.77;;;15.00;60.30;;;;;;5004657;28;20013;-82
2023/04/20 11:58:33;;;;;;;2.85;1.80;;;15.00;59.80;;;;;;5015533;28;20017;-82
2023/04/20 12:00:59;;;;;;;2.90;1.80;;;15.00;59.10;;;;;;5011930;28;20518;-84
2023/04/20 12:03:25;;;;;;;2.40;1.70;;;15.00;58.80;;;;;;5039317;28;20131;-81
2023/04/20 12:05:51;;;;;;;2.30;1.70;;;14.90;58.80;;;;;;5019302;28;20695;-83
2023/04/20 12:08:17;;;;;;;2.78;1.80;;;14.90;58.80;;;;;;5005591;28;20112;-83
2023/04/20 12:10:43;;;;;;;2.80;1.90;;;14.80;58.60;;;;;;5037717;28;20022;-83
2023/04/20 12:13:09;;;;;;;2.00;1.47;;;14.80;58.60;;;;;;5021091;28;20457;-83
2023/04/20 12:15:35;;;;;;;3.05;1.88;;;14.80;58.90;;;;;;5019096;28;20031;-82
2023/04/20 12:18:01;;;;;;;1.98;1.58;;;14.80;59.10;;;;;;4993325;28;20035;-83
2023/04/20 12:20:27;;;;;;;3.43;1.80;;;14.80;59.10;;;;;;5041367;28;20061;-81
2023/04/20 12:22:52;;;;;;;2.40;1.90;;;14.90;59.00;;;;;;5020127;28;20008;-84
2023/04/20 12:25:18;;;;;;;2.70;1.80;;;14.90;58.90;;;;;;5038518;28;20230;-82
2023/04/20 12:27:44;;;;;;;2.40;1.80;;;14.90;58.80;;;;;;5019733;28;20515;-80
2023/04/20 12:30:10;;;;;;;2.33;1.83;;;14.90;58.60;;;;;;4989618;28;20156;-82
2023/04/20 12:32:36;;;;;;;2.57;1.70;;;14.80;58.50;;;;;;5034303;28;20888;-85
2023/04/20 12:35:02;;;;;;;2.55;1.75;;;14.80;58.30;;;;;;5039110;28;20167;-82
2023/04/20 12:37:28;;;;;;;2.92;2.15;;;14.80;58.10;;;;;;5034075;28;20013;-85
2023/04/20 12:39:53;;;;;;;2.60;1.80;;;14.70;58.10;;;;;;5022956;28;20029;-82
2023/04/20 12:42:19;;;;;;;2.05;1.65;;;14.50;57.90;;;;;;5035106;28;20502;-83
2023/04/20 12:44:45;;;;;;;3.07;1.70;;;14.40;58.00;;;;;;5020727;28;20071;-84
2023/04/20 12:47:12;;;;;;;2.85;1.60;;;14.20;58.30;;;;;;5011091;28;20033;-83